TimeEDT,TemperatureF,Dew PointF,Humidity,Sea Level PressureIn,VisibilityMPH,Wind Direction,Wind SpeedMPH,Gust SpeedMPH,PrecipitationIn,Events,Conditions,WindDirDegrees,DateUTC
12:53 AM,43.0,32.0,65,30.57,10.0,East,11.5,-,N/A,,Clear,80,2013-04-22 04:53:00
1:53 AM,43.0,35.1,74,30.53,10.0,ENE,9.2,18.4,N/A,,Clear,70,2013-04-22 05:53:00
2:53 AM,44.1,37.0,76,30.52,10.0,ENE,9.2,-,N/A,,Clear,70,2013-04-22 06:53:00
3:53 AM,45.0,37.9,76,30.53,10.0,NE,11.5,20.7,N/A,,Partly Cloudy,50,2013-04-22 07:53:00
4:53 AM,46.0,39.0,76,30.51,10.0,ENE,12.7,-,N/A,,Mostly Cloudy,70,2013-04-22 08:53:00
5:53 AM,46.0,39.0,76,30.50,10.0,ENE,15.0,20.7,N/A,,Partly Cloudy,70,2013-04-22 09:53:00
6:53 AM,46.9,37.9,71,30.52,10.0,East,18.4,26.5,N/A,,Clear,80,2013-04-22 10:53:00
7:53 AM,48.0,39.9,74,30.51,10.0,ENE,16.1,26.5,N/A,,Partly Cloudy,60,2013-04-22 11:53:00
8:53 AM,48.9,39.0,69,30.51,10.0,ENE,13.8,25.3,N/A,,Partly Cloudy,60,2013-04-22 12:53:00
9:53 AM,48.9,41.0,74,30.52,10.0,ENE,18.4,28.8,N/A,,Mostly Cloudy,60,2013-04-22 13:53:00
10:33 AM,50.0,42.8,76,30.51,10.0,ENE,16.1,21.9,N/A,,Mostly Cloudy,60,2013-04-22 14:33:00
10:41 AM,50.0,41.0,71,30.52,10.0,ENE,18.4,27.6,N/A,,Mostly Cloudy,60,2013-04-22 14:41:00
10:51 AM,51.8,41.0,67,30.51,10.0,NE,16.1,29.9,N/A,,Overcast,50,2013-04-22 14:51:00
10:53 AM,51.1,41.0,68,30.51,10.0,ENE,18.4,29.9,N/A,,Overcast,60,2013-04-22 14:53:00
11:53 AM,50.0,42.1,74,30.49,10.0,NE,19.6,32.2,N/A,,Overcast,50,2013-04-22 15:53:00
12:53 PM,50.0,41.0,71,30.48,10.0,NE,20.7,29.9,N/A,,Overcast,40,2013-04-22 16:53:00
1:53 PM,50.0,42.1,74,30.48,10.0,NE,17.3,29.9,N/A,,Overcast,40,2013-04-22 17:53:00
2:53 PM,51.1,42.1,71,30.44,10.0,NE,20.7,31.1,N/A,,Overcast,50,2013-04-22 18:53:00
3:53 PM,48.9,41.0,74,30.43,10.0,NE,23.0,33.4,N/A,,Overcast,50,2013-04-22 19:53:00
4:38 PM,48.2,42.8,82,30.42,10.0,NE,24.2,35.7,N/A,,Overcast,50,2013-04-22 20:38:00
4:53 PM,48.9,42.1,77,30.41,10.0,NE,21.9,34.5,N/A,,Overcast,50,2013-04-22 20:53:00
5:30 PM,48.2,42.8,82,30.41,10.0,NE,20.7,31.1,N/A,,Overcast,50,2013-04-22 21:30:00
5:53 PM,46.9,42.1,83,30.41,10.0,NE,18.4,28.8,N/A,,Overcast,40,2013-04-22 21:53:00
6:53 PM,46.9,42.1,83,30.40,9.0,NE,19.6,29.9,N/A,,Overcast,40,2013-04-22 22:53:00
7:53 PM,46.9,42.1,83,30.40,9.0,NE,17.3,29.9,N/A,,Overcast,50,2013-04-22 23:53:00
8:53 PM,46.9,43.0,86,30.39,9.0,NE,19.6,31.1,N/A,,Overcast,50,2013-04-23 00:53:00
9:53 PM,46.9,44.1,90,30.38,8.0,NE,17.3,28.8,N/A,,Overcast,50,2013-04-23 01:53:00
10:53 PM,46.9,44.1,90,30.38,7.0,NE,18.4,28.8,N/A,,Overcast,50,2013-04-23 02:53:00
11:53 PM,46.9,44.1,90,30.36,7.0,ENE,13.8,26.5,N/A,,Overcast,60,2013-04-23 03:53:00